Time;durP1;ratioP1;P1;durP2;ratioP2;P2;SDS_P1;SDS_P2;PMS_P1;PMS_P2;Temp;Humidity;BMP_temperature;BMP_pressure;BME280_temperature;BME280_humidity;BME280_pressure;Samples;Min_cycle;Max_cycle;Signal;HPM_P1;HPM_P2
2023/11/17 00:00:23;;;;;;;0.50;0.40;;;5.00;99.90;;;;;;5096158;28;20224;-80
2023/11/17 00:02:49;;;;;;;0.50;0.40;;;5.00;99.90;;;;;;5097054;28;20189;-80
2023/11/17 00:05:16;;;;;;;0.50;0.40;;;5.00;99.90;;;;;;5098304;28;20282;-81
2023/11/17 00:07:44;;;;;;;0.50;0.40;;;5.00;99.90;;;;;;5098238;28;20209;-81
2023/11/17 00:10:13;;;;;;;0.50;0.40;;;5.00;99.90;;;;;;5098120;28;20218;-79
2023/11/17 00:12:41;;;;;;;0.50;0.40;;;5.10;99.90;;;;;;5098541;28;20240;-81
2023/11/17 00:15:11;;;;;;;0.50;0.40;;;5.00;99.90;;;;;;5098487;28;20197;-82
2023/11/17 00:17:38;;;;;;;0.50;0.40;;;5.00;99.90;;;;;;5090975;28;20229;-81
2023/11/17 00:20:07;;;;;;;0.50;0.40;;;5.00;99.90;;;;;;5098336;28;20226;-81
2023/11/17 00:22:33;;;;;;;0.50;0.40;;;5.00;99.90;;;;;;5096437;28;20189;-81
2023/11/17 00:25:02;;;;;;;0.50;0.40;;;5.00;99.90;;;;;;5097526;28;20198;-81
2023/11/17 00:27:28;;;;;;;0.50;0.40;;;4.90;99.90;;;;;;5097693;28;20193;-81
2023/11/17 00:29:55;;;;;;;0.50;0.40;;;4.90;99.90;;;;;;5097374;28;20218;-81
2023/11/17 00:32:22;;;;;;;0.50;0.40;;;4.90;99.90;;;;;;5097765;28;20186;-80
2023/11/17 00:34:49;;;;;;;0.50;0.50;;;4.90;99.90;;;;;;5098226;28;20262;-83
2023/11/17 00:37:16;;;;;;;0.50;0.40;;;4.80;99.90;;;;;;5097744;28;20187;-82
2023/11/17 00:39:43;;;;;;;0.50;0.40;;;4.80;99.90;;;;;;5096157;28;20266;-81
2023/11/17 00:42:12;;;;;;;0.50;0.40;;;4.80;99.90;;;;;;5095904;28;20197;-81
2023/11/17 00:44:38;;;;;;;0.50;0.40;;;4.80;99.90;;;;;;5094913;28;20193;-80
2023/11/17 00:47:05;;;;;;;0.50;0.40;;;4.80;99.90;;;;;;5096541;28;20201;-82
2023/11/17 00:49:32;;;;;;;0.50;0.40;;;4.80;99.90;;;;;;5096354;28;20213;-81
2023/11/17 00:52:00;;;;;;;0.50;0.40;;;4.80;99.90;;;;;;5095581;28;20194;-80
2023/11/17 00:54:27;;;;;;;0.50;0.40;;;4.70;99.90;;;;;;5095957;28;20210;-79
2023/11/17 00:56:54;;;;;;;0.50;0.40;;;4.70;99.90;;;;;;5095492;28;20222;-81
2023/11/17 00:59:23;;;;;;;0.50;0.40;;;4.70;99.90;;;;;;5095439;28;20557;-80
2023/11/17 01:01:50;;;;;;;0.50;0.40;;;4.70;99.90;;;;;;5095877;28;20194;-81
2023/11/17 01:04:17;;;;;;;0.50;0.40;;;4.70;99.90;;;;;;5095304;28;20197;-80
2023/11/17 01:06:43;;;;;;;0.47;0.40;;;4.70;99.90;;;;;;5096260;28;20190;-81
2023/11/17 01:09:10;;;;;;;0.50;0.40;;;4.70;99.90;;;;;;5096121;28;20194;-81
2023/11/17 01:11:39;;;;;;;0.50;0.40;;;4.70;99.90;;;;;;5095766;28;20186;-81
2023/11/17 01:14:08;;;;;;;0.50;0.40;;;4.70;99.90;;;;;;5095585;28;20209;-80
2023/11/17 01:16:36;;;;;;;0.50;0.40;;;4.70;99.90;;;;;;5095060;28;20194;-80
2023/11/17 01:19:03;;;;;;;0.50;0.40;;;4.60;99.90;;;;;;5094613;28;20189;-79
2023/11/17 01:21:30;;;;;;;0.50;0.40;;;4.60;99.90;;;;;;5094866;28;20212;-80
2023/11/17 01:23:56;;;;;;;1.23;0.98;;;4.50;99.90;;;;;;5095036;28;20182;-80
2023/11/17 01:26:24;;;;;;;0.77;0.77;;;4.50;99.90;;;;;;5094552;28;20280;-81
2023/11/17 01:28:51;;;;;;;0.50;0.40;;;4.60;99.90;;;;;;5094504;28;20197;-80
2023/11/17 01:31:19;;;;;;;0.50;0.40;;;4.60;99.90;;;;;;5094598;28;20210;-79
2023/11/17 01:33:48;;;;;;;0.50;0.40;;;4.50;99.90;;;;;;5094496;28;20884;-80
2023/11/17 01:38:58;;;;;;;0.50;0.40;;;4.40;99.90;;;;;;5103542;27;20517;-82
2023/11/17 01:41:24;;;;;;;0.73;0.73;;;4.40;99.90;;;;;;5111351;28;20197;-81
2023/11/17 01:43:51;;;;;;;0.50;0.40;;;4.40;99.90;;;;;;5114877;28;20208;-81
2023/11/17 01:46:20;;;;;;;0.50;0.40;;;4.30;99.90;;;;;;5115057;28;20197;-82
2023/11/17 01:48:47;;;;;;;5.30;4.85;;;4.30;99.90;;;;;;5093815;28;20194;-81
2023/11/17 01:51:14;;;;;;;0.50;0.40;;;4.30;99.90;;;;;;5094628;28;20288;-82
2023/11/17 01:53:41;;;;;;;3.25;2.55;;;4.30;99.90;;;;;;5094035;28;20257;-81
2023/11/17 01:56:09;;;;;;;1.30;1.30;;;4.30;99.90;;;;;;5094128;28;20225;-82
2023/11/17 01:58:36;;;;;;;0.70;0.70;;;4.30;99.90;;;;;;5093375;28;20228;-81
2023/11/17 02:01:08;;;;;;;0.50;0.40;;;4.20;99.90;;;;;;5094810;28;20224;-80
2023/11/17 02:03:39;;;;;;;0.50;0.40;;;4.20;99.90;;;;;;5094006;28;20284;-81
2023/11/17 02:06:14;;;;;;;0.50;0.40;;;4.20;99.90;;;;;;5094284;28;20198;-82
2023/11/17 02:08:52;;;;;;;1.80;1.70;;;4.20;99.90;;;;;;5094256;28;20224;-82
2023/11/17 02:11:26;;;;;;;0.70;0.70;;;4.20;99.90;;;;;;5093932;28;20205;-82
2023/11/17 02:14:00;;;;;;;3.40;1.83;;;4.20;99.90;;;;;;5085755;28;20198;-81
2023/11/17 02:16:30;;;;;;;2.80;2.63;;;4.10;99.90;;;;;;5093650;28;20209;-82
2023/11/17 02:19:00;;;;;;;2.33;2.22;;;4.10;99.90;;;;;;5093657;28;20558;-81
2023/11/17 02:21:31;;;;;;;0.50;0.40;;;4.10;99.90;;;;;;5093007;28;20201;-82
2023/11/17 02:24:00;;;;;;;0.50;0.40;;;4.10;99.90;;;;;;5093593;28;20198;-82
2023/11/17 02:26:35;;;;;;;0.50;0.40;;;4.10;99.90;;;;;;5092723;28;20198;-80
2023/11/17 02:29:07;;;;;;;0.50;0.40;;;4.10;99.90;;;;;;5093549;28;20281;-82
2023/11/17 02:31:35;;;;;;;1.33;1.25;;;4.00;99.90;;;;;;5092898;28;20208;-79
2023/11/17 02:34:07;;;;;;;0.50;0.45;;;4.00;99.90;;;;;;5092972;28;20673;-82
2023/11/17 02:36:34;;;;;;;0.50;0.40;;;3.90;99.90;;;;;;5092955;28;20285;-81
2023/11/17 02:39:13;;;;;;;0.50;0.40;;;3.90;99.90;;;;;;5092946;28;20244;-81
2023/11/17 02:41:43;;;;;;;0.50;0.40;;;3.90;99.90;;;;;;5093228;28;20271;-82
2023/11/17 02:44:15;;;;;;;0.50;0.40;;;3.90;99.90;;;;;;5093513;28;20269;-81
2023/11/17 02:46:44;;;;;;;0.50;0.40;;;3.90;99.90;;;;;;5093325;28;20242;-81
2023/11/17 02:49:22;;;;;;;0.50;0.40;;;3.90;99.90;;;;;;5085590;28;20605;-81
2023/11/17 02:51:51;;;;;;;0.50;0.40;;;4.00;99.90;;;;;;5079792;28;20230;-81
2023/11/17 02:54:21;;;;;;;0.50;0.40;;;4.10;99.90;;;;;;5080359;28;20597;-82
2023/11/17 02:56:48;;;;;;;0.50;0.40;;;4.20;99.90;;;;;;5080077;28;20214;-81
2023/11/17 02:59:17;;;;;;;0.50;0.40;;;4.30;99.90;;;;;;5079892;28;20211;-81
2023/11/17 03:01:46;;;;;;;0.50;0.40;;;4.40;99.90;;;;;;5080371;28;20203;-80
2023/11/17 03:04:15;;;;;;;0.50;0.40;;;4.40;99.90;;;;;;5079958;28;20206;-81
2023/11/17 03:06:46;;;;;;;0.50;0.40;;;4.50;99.90;;;;;;5080355;28;20218;-81
2023/11/17 03:09:14;;;;;;;0.50;0.40;;;4.50;99.90;;;;;;5080571;28;20202;-81
2023/11/17 03:11:42;;;;;;;0.40;0.40;;;4.60;99.90;;;;;;5080236;28;20222;-81
2023/11/17 03:14:09;;;;;;;0.50;0.40;;;4.70;99.90;;;;;;5080773;28;20254;-81
2023/11/17 03:16:36;;;;;;;4.93;4.53;;;4.80;99.90;;;;;;5080339;28;20194;-81
2023/11/17 03:19:10;;;;;;;0.40;0.40;;;4.90;99.90;;;;;;5080466;28;20216;-82
2023/11/17 03:21:41;;;;;;;2.58;2.47;;;4.90;99.90;;;;;;5080062;28;20641;-81
2023/11/17 03:24:14;;;;;;;0.50;0.40;;;4.90;99.90;;;;;;5079943;28;20205;-81
2023/11/17 03:26:43;;;;;;;3.30;2.40;;;4.90;99.90;;;;;;5079617;28;20222;-81
2023/11/17 03:29:11;;;;;;;0.50;0.40;;;5.00;99.90;;;;;;5080350;28;20195;-82
2023/11/17 03:31:38;;;;;;;0.50;0.40;;;5.00;99.90;;;;;;5079647;28;20194;-82
2023/11/17 03:34:09;;;;;;;1.08;1.02;;;5.00;99.90;;;;;;5079464;28;20661;-81
2023/11/17 03:36:38;;;;;;;0.60;0.60;;;5.10;99.90;;;;;;5079469;28;20201;-82
2023/11/17 03:39:12;;;;;;;0.50;0.40;;;5.10;99.90;;;;;;5079809;28;20217;-82
2023/11/17 03:41:39;;;;;;;0.50;0.40;;;5.10;99.90;;;;;;5079880;28;20604;-81
2023/11/17 03:44:06;;;;;;;0.93;0.93;;;5.20;99.90;;;;;;5079666;28;20194;-82
2023/11/17 03:46:33;;;;;;;10.77;1.58;;;5.20;99.90;;;;;;5079283;28;20678;-82
2023/11/17 03:49:00;;;;;;;0.40;0.40;;;5.20;99.90;;;;;;5079337;28;20248;-82
2023/11/17 03:51:28;;;;;;;2.95;1.15;;;5.20;99.90;;;;;;5079466;28;20285;-82
2023/11/17 03:53:55;;;;;;;0.50;0.40;;;5.20;99.90;;;;;;5079337;28;20266;-80
2023/11/17 03:56:22;;;;;;;0.50;0.40;;;5.20;99.90;;;;;;5079206;28;20195;-81
2023/11/17 03:58:48;;;;;;;0.50;0.40;;;5.10;99.90;;;;;;5079776;28;20219;-81
2023/11/17 04:01:15;;;;;;;21.13;19.92;;;5.10;99.90;;;;;;5078878;28;20195;-82
2023/11/17 04:03:42;;;;;;;0.50;0.40;;;5.20;99.90;;;;;;5079116;28;20675;-82
2023/11/17 04:06:09;;;;;;;0.60;0.60;;;5.20;99.90;;;;;;5078786;28;20620;-82
2023/11/17 04:08:38;;;;;;;2.80;2.28;;;5.20;99.90;;;;;;5078481;28;20215;-82
2023/11/17 04:11:05;;;;;;;0.50;0.40;;;5.30;99.90;;;;;;5079131;28;20190;-81
2023/11/17 04:13:35;;;;;;;1.75;0.73;;;5.30;99.90;;;;;;5079148;28;20197;-81
2023/11/17 04:16:02;;;;;;;1.63;1.40;;;5.30;99.90;;;;;;5079021;28;20256;-82
2023/11/17 04:18:29;;;;;;;0.50;0.40;;;5.30;99.90;;;;;;5078600;28;20225;-81
2023/11/17 04:20:56;;;;;;;0.60;0.60;;;5.30;99.90;;;;;;5078934;28;20198;-82
2023/11/17 04:23:23;;;;;;;0.50;0.40;;;5.20;99.90;;;;;;5078770;28;20194;-81
2023/11/17 04:25:51;;;;;;;0.47;0.40;;;5.30;99.90;;;;;;5081598;28;20198;-82
2023/11/17 04:28:18;;;;;;;0.47;0.40;;;5.30;99.90;;;;;;5080825;28;20237;-82
2023/11/17 04:30:45;;;;;;;0.50;0.40;;;5.30;99.90;;;;;;5080693;28;20232;-82
2023/11/17 04:33:12;;;;;;;0.47;0.40;;;5.30;99.90;;;;;;5079553;28;20293;-83
2023/11/17 04:35:38;;;;;;;0.50;0.40;;;5.30;99.90;;;;;;5076090;28;20195;-82
2023/11/17 04:38:05;;;;;;;2.53;1.08;;;5.30;99.90;;;;;;5076009;28;20221;-82
2023/11/17 04:40:33;;;;;;;0.50;0.40;;;5.30;99.90;;;;;;5076622;28;20248;-83
2023/11/17 04:43:03;;;;;;;0.50;0.40;;;5.20;99.90;;;;;;5077540;28;20612;-83
2023/11/17 04:45:35;;;;;;;0.93;0.93;;;5.10;99.90;;;;;;5077186;28;20190;-83
2023/11/17 04:48:04;;;;;;;1.50;1.33;;;5.10;99.90;;;;;;5077578;28;20246;-83
2023/11/17 04:50:31;;;;;;;0.70;0.70;;;5.10;99.90;;;;;;5077867;28;20194;-82
2023/11/17 04:52:58;;;;;;;2.05;1.95;;;5.10;99.90;;;;;;5078204;28;21063;-83
2023/11/17 04:55:25;;;;;;;0.50;0.40;;;5.10;99.90;;;;;;5078895;28;20226;-83
2023/11/17 04:57:52;;;;;;;1.58;1.58;;;5.10;99.90;;;;;;5077422;28;20312;-83
2023/11/17 05:00:20;;;;;;;2.05;1.15;;;5.00;99.90;;;;;;5079265;28;20197;-83
2023/11/17 05:02:47;;;;;;;2.45;2.35;;;5.00;99.90;;;;;;5078763;28;20261;-82
2023/11/17 05:05:15;;;;;;;0.60;0.60;;;4.90;99.90;;;;;;5081928;28;20190;-84
2023/11/17 05:07:44;;;;;;;0.50;0.40;;;4.80;99.90;;;;;;5077466;28;20218;-82
2023/11/17 05:10:11;;;;;;;1.70;1.60;;;4.80;99.90;;;;;;5077812;28;20197;-83
2023/11/17 05:12:39;;;;;;;0.50;0.50;;;4.80;99.90;;;;;;5077400;28;20201;-82
2023/11/17 05:15:07;;;;;;;1.17;1.08;;;4.70;99.90;;;;;;5077334;28;20297;-81
2023/11/17 05:17:43;;;;;;;0.50;0.45;;;4.80;99.90;;;;;;5077692;28;20222;-82
2023/11/17 05:20:12;;;;;;;0.50;0.50;;;4.70;99.90;;;;;;5076521;28;20197;-82
2023/11/17 05:22:40;;;;;;;0.50;0.40;;;4.70;99.90;;;;;;5076347;28;20201;-81
2023/11/17 05:25:07;;;;;;;0.50;0.40;;;4.70;99.90;;;;;;5067865;28;20272;-81
2023/11/17 05:27:34;;;;;;;0.50;0.40;;;4.60;99.90;;;;;;5076881;28;20326;-81
2023/11/17 05:30:04;;;;;;;0.77;0.77;;;4.60;99.90;;;;;;5077729;28;20201;-82
2023/11/17 05:32:31;;;;;;;0.75;0.75;;;4.60;99.90;;;;;;5075850;28;20285;-80
2023/11/17 05:34:59;;;;;;;0.50;0.43;;;4.60;99.90;;;;;;5075280;28;20202;-81
2023/11/17 05:37:26;;;;;;;0.55;0.55;;;4.70;99.90;;;;;;5076973;28;20240;-81
2023/11/17 05:39:53;;;;;;;1.25;1.15;;;4.70;99.90;;;;;;5077162;28;20228;-82
2023/11/17 05:42:20;;;;;;;1.40;0.93;;;4.70;99.90;;;;;;5077116;28;20195;-81
2023/11/17 05:44:47;;;;;;;0.63;0.60;;;4.70;99.90;;;;;;5076547;28;20282;-81
2023/11/17 05:47:14;;;;;;;0.60;0.60;;;4.60;99.90;;;;;;5075181;28;20263;-81
2023/11/17 05:49:44;;;;;;;1.65;1.13;;;4.50;99.90;;;;;;5073393;28;20278;-81
2023/11/17 05:52:14;;;;;;;11.50;5.95;;;4.40;99.90;;;;;;5073212;28;20201;-81
2023/11/17 05:54:43;;;;;;;12.40;7.93;;;4.20;99.90;;;;;;5074361;28;20197;-81
2023/11/17 05:57:11;;;;;;;0.60;0.50;;;4.00;99.90;;;;;;5074424;28;20221;-81
2023/11/17 05:59:38;;;;;;;0.85;0.85;;;4.00;99.90;;;;;;5073913;28;20218;-82
2023/11/17 06:02:05;;;;;;;0.65;0.65;;;4.10;99.90;;;;;;5073873;28;20206;-81
2023/11/17 06:04:32;;;;;;;2.05;1.95;;;4.10;99.90;;;;;;5073893;28;20194;-82
2023/11/17 06:06:59;;;;;;;0.70;0.70;;;4.10;99.90;;;;;;5074202;28;20562;-82
2023/11/17 06:09:27;;;;;;;0.50;0.50;;;4.20;99.90;;;;;;5074490;28;20195;-81
2023/11/17 06:11:55;;;;;;;0.50;0.40;;;4.20;99.90;;;;;;5074176;28;20210;-82
2023/11/17 06:14:22;;;;;;;0.60;0.60;;;4.30;99.90;;;;;;5075355;28;20207;-82
2023/11/17 06:16:52;;;;;;;6.20;5.20;;;4.30;99.90;;;;;;5074214;28;20225;-82
2023/11/17 06:19:19;;;;;;;0.60;0.60;;;4.30;99.90;;;;;;5074598;28;20210;-81
2023/11/17 06:21:47;;;;;;;0.85;0.85;;;4.20;99.90;;;;;;5075619;28;20205;-80
2023/11/17 06:24:14;;;;;;;1.38;1.38;;;4.20;99.90;;;;;;5066849;28;20197;-81
2023/11/17 06:26:43;;;;;;;0.40;0.40;;;4.10;99.90;;;;;;5078339;28;20198;-81
2023/11/17 06:29:10;;;;;;;2.55;1.90;;;4.10;99.90;;;;;;5077520;28;20194;-80
2023/11/17 06:31:37;;;;;;;0.60;0.60;;;4.10;99.90;;;;;;5079228;28;20194;-81
2023/11/17 06:34:05;;;;;;;0.77;0.77;;;4.20;99.90;;;;;;5077455;28;20207;-79
2023/11/17 06:36:33;;;;;;;0.50;0.40;;;4.20;99.90;;;;;;5082906;28;20588;-81
2023/11/17 06:39:00;;;;;;;0.43;0.43;;;4.30;99.90;;;;;;5078283;28;20305;-81
2023/11/17 06:41:30;;;;;;;0.98;0.98;;;4.40;99.90;;;;;;5080348;28;20195;-81
2023/11/17 06:43:58;;;;;;;0.70;0.70;;;4.40;99.90;;;;;;5077457;28;20286;-81
2023/11/17 06:46:26;;;;;;;1.77;1.63;;;4.50;99.90;;;;;;5077354;28;20248;-80
2023/11/17 06:48:52;;;;;;;0.50;0.40;;;4.40;99.90;;;;;;5075670;28;20203;-80
2023/11/17 06:51:20;;;;;;;1.13;1.13;;;4.40;99.90;;;;;;5079348;28;20190;-79
2023/11/17 06:53:46;;;;;;;3.85;3.50;;;4.40;99.90;;;;;;5078018;28;20199;-83
2023/11/17 06:56:13;;;;;;;5.97;3.13;;;4.40;99.90;;;;;;5077270;28;20194;-80
2023/11/17 06:58:40;;;;;;;0.40;0.40;;;4.50;99.90;;;;;;5077525;28;20232;-81
2023/11/17 07:01:09;;;;;;;0.93;0.93;;;4.40;99.90;;;;;;5076268;28;20198;-80
2023/11/17 07:03:38;;;;;;;1.20;1.20;;;4.50;99.90;;;;;;5075466;28;20666;-81
2023/11/17 07:06:06;;;;;;;0.40;0.40;;;4.50;99.90;;;;;;5076327;28;20202;-81
2023/11/17 07:08:33;;;;;;;0.60;0.60;;;4.50;99.90;;;;;;5076383;28;20241;-81
2023/11/17 07:11:00;;;;;;;0.70;0.70;;;4.50;99.90;;;;;;5075117;28;20195;-81
2023/11/17 07:13:27;;;;;;;21.55;3.85;;;4.40;99.90;;;;;;5076523;28;20203;-80
2023/11/17 07:15:54;;;;;;;0.60;0.55;;;4.40;99.90;;;;;;5075750;28;20198;-80
2023/11/17 07:18:22;;;;;;;2.08;1.52;;;4.40;99.90;;;;;;5075256;28;20214;-80
2023/11/17 07:20:48;;;;;;;1.25;1.25;;;4.30;99.90;;;;;;5074846;28;20199;-80
2023/11/17 07:23:15;;;;;;;1.30;1.20;;;4.20;99.90;;;;;;5074646;28;20205;-79
2023/11/17 07:25:45;;;;;;;0.40;0.40;;;4.20;99.90;;;;;;5078609;28;20285;-81
2023/11/17 07:28:12;;;;;;;0.50;0.40;;;4.20;99.90;;;;;;5074632;28;20219;-81
2023/11/17 07:30:40;;;;;;;1.88;1.77;;;4.20;99.90;;;;;;5077738;28;20205;-81
2023/11/17 07:33:09;;;;;;;0.90;0.90;;;4.30;99.90;;;;;;5078310;28;20209;-81
2023/11/17 07:35:40;;;;;;;0.40;0.40;;;4.40;99.90;;;;;;5079750;28;20462;-79
2023/11/17 07:38:06;;;;;;;0.80;0.80;;;4.50;99.90;;;;;;5079888;28;20226;-81
2023/11/17 07:40:33;;;;;;;2.15;2.05;;;4.40;99.90;;;;;;5080109;28;20241;-80
2023/11/17 07:43:00;;;;;;;1.25;1.15;;;4.40;99.90;;;;;;5081068;28;20209;-82
2023/11/17 07:45:27;;;;;;;2.15;1.95;;;4.40;99.90;;;;;;5079850;28;20217;-81
2023/11/17 07:47:54;;;;;;;4.00;3.65;;;4.50;99.90;;;;;;5079085;28;20226;-80
2023/11/17 07:50:21;;;;;;;0.50;0.40;;;4.50;99.90;;;;;;5071551;28;20233;-82
2023/11/17 07:52:50;;;;;;;0.40;0.40;;;4.50;99.90;;;;;;5078078;28;20285;-83
2023/11/17 07:55:17;;;;;;;0.40;0.40;;;4.60;99.90;;;;;;5077957;28;20293;-81
2023/11/17 07:57:44;;;;;;;0.50;0.40;;;4.70;99.90;;;;;;5077335;28;20246;-82
2023/11/17 08:00:19;;;;;;;0.43;0.40;;;4.60;99.90;;;;;;5073539;28;20694;-82
2023/11/17 08:02:46;;;;;;;0.40;0.40;;;4.70;99.90;;;;;;5073862;28;20204;-81
2023/11/17 08:05:14;;;;;;;0.45;0.40;;;4.80;99.90;;;;;;5074668;28;20666;-82
2023/11/17 08:07:40;;;;;;;0.40;0.38;;;4.80;99.90;;;;;;5075111;28;20792;-82
2023/11/17 08:10:09;;;;;;;0.40;0.40;;;4.80;99.90;;;;;;5075005;28;20850;-81
2023/11/17 08:12:36;;;;;;;0.47;0.40;;;4.90;99.90;;;;;;5074666;28;20198;-81
2023/11/17 08:15:04;;;;;;;1.08;1.08;;;4.90;99.90;;;;;;5074605;28;20199;-82
2023/11/17 08:17:31;;;;;;;0.40;0.40;;;4.80;99.90;;;;;;5074854;28;20677;-83
2023/11/17 08:19:59;;;;;;;0.43;0.40;;;4.80;99.90;;;;;;5075734;28;20261;-81
2023/11/17 08:22:29;;;;;;;0.82;0.82;;;4.90;99.90;;;;;;5084341;28;20197;-85
2023/11/17 08:24:56;;;;;;;6.97;1.75;;;4.90;99.90;;;;;;5084076;28;20206;-80
2023/11/17 08:27:24;;;;;;;2.08;1.98;;;4.90;99.90;;;;;;5082789;28;20214;-83
2023/11/17 08:29:51;;;;;;;1.50;1.35;;;4.90;99.90;;;;;;5082635;28;20225;-83
2023/11/17 08:32:18;;;;;;;1.73;1.63;;;4.90;99.90;;;;;;5083221;28;20206;-82
2023/11/17 08:34:46;;;;;;;0.93;0.93;;;4.90;99.90;;;;;;5086675;28;20294;-84
2023/11/17 08:37:13;;;;;;;0.50;0.40;;;4.90;99.90;;;;;;5087883;28;20226;-81
2023/11/17 08:39:41;;;;;;;0.65;0.65;;;5.00;99.90;;;;;;5083581;28;20221;-82
2023/11/17 08:42:08;;;;;;;0.50;0.43;;;5.00;99.90;;;;;;5085193;28;20202;-83
2023/11/17 08:44:36;;;;;;;3.55;3.40;;;4.90;99.90;;;;;;5085069;28;20585;-82
2023/11/17 08:47:05;;;;;;;2.17;2.08;;;4.90;99.90;;;;;;5082774;28;20221;-83
2023/11/17 08:49:36;;;;;;;2.20;2.05;;;5.00;99.90;;;;;;5082395;28;20183;-84
2023/11/17 08:52:04;;;;;;;4.20;3.90;;;5.00;99.90;;;;;;5081107;28;20202;-81
2023/11/17 08:54:31;;;;;;;1.45;1.35;;;5.10;99.90;;;;;;5080203;28;20212;-81
2023/11/17 08:56:58;;;;;;;0.50;0.50;;;5.20;99.90;;;;;;5080419;28;20214;-83
2023/11/17 08:59:25;;;;;;;0.50;0.40;;;5.30;99.90;;;;;;5077451;28;20211;-81
2023/11/17 09:01:54;;;;;;;1.77;1.63;;;5.60;99.90;;;;;;5079096;28;20225;-82
2023/11/17 09:04:21;;;;;;;0.50;0.47;;;5.70;99.90;;;;;;5078235;28;20209;-79
2023/11/17 09:06:48;;;;;;;5.60;3.30;;;5.90;99.90;;;;;;5079469;28;20218;-83
2023/11/17 09:09:17;;;;;;;3.67;1.77;;;6.00;99.90;;;;;;5077256;28;20226;-82
2023/11/17 09:11:47;;;;;;;0.50;0.40;;;6.10;99.90;;;;;;5077228;28;20187;-80
2023/11/17 09:14:14;;;;;;;0.65;0.63;;;6.20;99.90;;;;;;5078023;28;20199;-79
2023/11/17 09:16:41;;;;;;;1.92;1.15;;;6.40;99.90;;;;;;5079000;28;20744;-80
2023/11/17 09:19:09;;;;;;;0.50;0.40;;;6.50;99.90;;;;;;5078167;28;20198;-81
2023/11/17 09:21:35;;;;;;;0.50;0.40;;;6.60;99.90;;;;;;5079369;28;20194;-82
2023/11/17 09:24:02;;;;;;;0.50;0.40;;;6.60;99.90;;;;;;5078303;28;20202;-81
2023/11/17 09:26:29;;;;;;;1.02;1.02;;;6.70;99.90;;;;;;5070364;28;20601;-81
2023/11/17 09:28:56;;;;;;;0.50;0.40;;;6.70;99.90;;;;;;5078310;28;20225;-80
2023/11/17 09:31:24;;;;;;;0.50;0.40;;;6.80;99.90;;;;;;5077970;28;20352;-82
2023/11/17 09:33:52;;;;;;;0.50;0.40;;;6.80;99.90;;;;;;5078057;28;20194;-80
2023/11/17 09:36:20;;;;;;;0.50;0.40;;;6.90;99.90;;;;;;5076814;28;20213;-82
2023/11/17 09:38:48;;;;;;;0.50;0.40;;;6.90;99.90;;;;;;5076613;28;20696;-80
2023/11/17 09:41:15;;;;;;;0.50;0.40;;;6.90;99.90;;;;;;5076654;28;20215;-79
2023/11/17 09:43:47;;;;;;;0.50;0.40;;;7.00;99.90;;;;;;5076656;28;20238;-79
2023/11/17 09:46:17;;;;;;;0.63;0.63;;;7.20;99.90;;;;;;5076146;28;20198;-80
2023/11/17 09:48:44;;;;;;;0.60;0.40;;;7.30;99.90;;;;;;5076324;28;20256;-80
2023/11/17 09:51:12;;;;;;;0.88;0.88;;;7.30;99.90;;;;;;5074251;28;20612;-80
2023/11/17 09:53:42;;;;;;;0.50;0.40;;;7.60;99.90;;;;;;5076850;28;20277;-81
2023/11/17 09:56:11;;;;;;;0.70;0.70;;;8.00;99.90;;;;;;5075660;28;20285;-81
2023/11/17 09:58:39;;;;;;;0.60;0.55;;;8.30;99.90;;;;;;5077201;28;20217;-80
2023/11/17 10:01:10;;;;;;;3.00;2.80;;;8.40;99.90;;;;;;5080479;28;20221;-80
2023/11/17 10:03:38;;;;;;;8.43;4.60;;;8.60;99.90;;;;;;5078735;28;20807;-80
2023/11/17 10:06:06;;;;;;;0.50;0.40;;;8.50;99.90;;;;;;5078564;28;20194;-80
2023/11/17 10:08:34;;;;;;;1.40;1.30;;;8.20;99.90;;;;;;5071517;28;20214;-80
2023/11/17 10:11:03;;;;;;;0.60;0.60;;;8.10;99.90;;;;;;5078328;28;20191;-80
2023/11/17 10:13:32;;;;;;;0.50;0.40;;;8.10;99.90;;;;;;5078048;28;20281;-81
2023/11/17 10:16:02;;;;;;;1.08;1.08;;;8.20;99.90;;;;;;5078134;28;20195;-80
2023/11/17 10:18:30;;;;;;;2.55;2.35;;;8.20;99.90;;;;;;5077385;28;20281;-78
2023/11/17 10:20:57;;;;;;;0.50;0.40;;;8.20;99.90;;;;;;5079861;28;20218;-80
2023/11/17 10:23:25;;;;;;;1.30;1.20;;;8.10;99.90;;;;;;5079955;28;20202;-80
2023/11/17 10:25:54;;;;;;;3.58;3.00;;;8.10;99.90;;;;;;5080171;28;20198;-80
2023/11/17 10:28:24;;;;;;;1.08;1.08;;;8.00;99.90;;;;;;5079342;28;20245;-81
2023/11/17 10:30:54;;;;;;;0.73;0.73;;;8.10;99.90;;;;;;5079797;28;20190;-81
2023/11/17 10:33:27;;;;;;;2.00;1.52;;;8.10;99.90;;;;;;5080633;28;20205;-80
2023/11/17 10:36:01;;;;;;;1.67;1.25;;;8.20;99.90;;;;;;5079629;28;20203;-81
2023/11/17 10:38:28;;;;;;;1.35;1.25;;;8.20;99.90;;;;;;5079588;28;20221;-77
2023/11/17 10:41:03;;;;;;;3.90;3.63;;;8.30;99.90;;;;;;5080153;28;20754;-80
2023/11/17 10:43:47;;;;;;;0.50;0.50;;;8.40;99.90;;;;;;5079268;28;20208;-80
2023/11/17 10:46:14;;;;;;;4.63;1.73;;;8.40;99.90;;;;;;5079174;28;20194;-80
2023/11/17 10:48:42;;;;;;;2.42;2.22;;;8.50;99.90;;;;;;5079460;28;20213;-80
2023/11/17 10:51:13;;;;;;;2.95;2.78;;;8.60;99.90;;;;;;5079689;28;20202;-80
2023/11/17 10:53:40;;;;;;;0.50;0.40;;;8.50;99.90;;;;;;5080259;28;20194;-82
2023/11/17 10:56:23;;;;;;;0.50;0.40;;;8.50;99.90;;;;;;5080383;28;20277;-80
2023/11/17 10:58:55;;;;;;;0.50;0.40;;;8.40;99.90;;;;;;5079390;28;20249;-80
2023/11/17 11:01:22;;;;;;;0.50;0.40;;;8.40;99.90;;;;;;5078972;28;20252;-81
2023/11/17 11:03:50;;;;;;;0.50;0.40;;;8.50;99.90;;;;;;5080113;28;20217;-80
2023/11/17 11:06:17;;;;;;;2.35;2.25;;;8.50;99.90;;;;;;5079551;28;20194;-80
2023/11/17 11:08:53;;;;;;;1.55;1.55;;;8.50;99.90;;;;;;5080341;28;20210;-81
2023/11/17 11:11:23;;;;;;;0.50;0.40;;;8.60;99.90;;;;;;5079427;28;20260;-80
2023/11/17 11:13:57;;;;;;;0.60;0.60;;;8.60;99.90;;;;;;5079266;28;20439;-79
2023/11/17 11:16:25;;;;;;;0.50;0.50;;;8.60;99.90;;;;;;5079405;28;20205;-80
2023/11/17 11:18:54;;;;;;;3.90;3.60;;;8.60;99.90;;;;;;5079472;28;20294;-80
2023/11/17 11:21:22;;;;;;;1.10;1.05;;;8.50;99.90;;;;;;5079841;28;20219;-79
2023/11/17 11:23:50;;;;;;;5.75;2.88;;;8.40;99.90;;;;;;5079430;28;20221;-82
2023/11/17 11:26:18;;;;;;;9.32;5.88;;;8.30;99.90;;;;;;5079279;28;20277;-80
2023/11/17 11:28:46;;;;;;;2.60;2.15;;;8.40;99.90;;;;;;5079398;28;20218;-81
2023/11/17 11:31:15;;;;;;;0.50;0.45;;;8.30;99.90;;;;;;5079285;28;20226;-80
2023/11/17 11:33:42;;;;;;;0.50;0.40;;;8.30;99.90;;;;;;5071080;28;20715;-81
2023/11/17 11:36:10;;;;;;;0.52;0.52;;;8.30;99.90;;;;;;5079678;28;20199;-81
2023/11/17 11:38:38;;;;;;;0.50;0.40;;;8.20;99.90;;;;;;5078957;28;20776;-80
2023/11/17 11:41:11;;;;;;;1.88;1.67;;;8.30;99.90;;;;;;5078686;28;20272;-80
2023/11/17 11:43:38;;;;;;;1.00;0.80;;;8.40;99.90;;;;;;5078934;28;20191;-79
2023/11/17 11:46:07;;;;;;;0.50;0.40;;;8.50;99.90;;;;;;5080778;28;20195;-81
2023/11/17 11:48:37;;;;;;;0.50;0.40;;;8.60;99.90;;;;;;5085146;28;20312;-80
2023/11/17 11:51:08;;;;;;;0.50;0.40;;;8.60;99.90;;;;;;5085471;28;20200;-82
2023/11/17 11:53:39;;;;;;;0.70;0.70;;;8.70;99.90;;;;;;5084549;28;20220;-82
2023/11/17 11:56:11;;;;;;;0.50;0.40;;;8.70;99.90;;;;;;5082072;28;20687;-80
2023/11/17 11:58:43;;;;;;;1.50;0.70;;;8.80;99.90;;;;;;5082250;28;20214;-81
2023/11/17 12:01:12;;;;;;;4.63;4.28;;;8.90;99.90;;;;;;5085053;28;20249;-81
2023/11/17 12:03:44;;;;;;;0.95;0.95;;;8.90;99.90;;;;;;5081359;28;20190;-82
2023/11/17 12:06:11;;;;;;;3.80;3.60;;;9.00;99.90;;;;;;5080193;28;20194;-82
2023/11/17 12:08:37;;;;;;;0.50;0.40;;;9.10;99.90;;;;;;5079260;28;20213;-82
2023/11/17 12:11:13;;;;;;;10.75;9.85;;;9.30;99.90;;;;;;5080190;28;20193;-83
2023/11/17 12:13:44;;;;;;;1.05;0.95;;;9.40;99.90;;;;;;5079784;28;20209;-82
2023/11/17 12:16:19;;;;;;;0.50;0.43;;;9.60;99.90;;;;;;5080644;28;20229;-82
2023/11/17 12:18:51;;;;;;;0.50;0.40;;;9.70;99.90;;;;;;5079947;28;20456;-81
2023/11/17 12:21:20;;;;;;;0.50;0.40;;;9.80;99.90;;;;;;5079181;28;20300;-80
2023/11/17 12:23:51;;;;;;;1.20;1.20;;;9.90;99.90;;;;;;5072152;28;20624;-80
2023/11/17 12:26:19;;;;;;;1.35;1.25;;;9.80;99.90;;;;;;5079148;28;20942;-82
2023/11/17 12:28:47;;;;;;;0.50;0.40;;;9.90;99.90;;;;;;5071143;28;20225;-83
2023/11/17 12:31:15;;;;;;;0.50;0.40;;;10.00;99.90;;;;;;5079119;28;20502;-82
2023/11/17 12:33:42;;;;;;;0.60;0.60;;;10.00;99.90;;;;;;5078642;28;20479;-83
2023/11/17 12:36:15;;;;;;;0.50;0.40;;;10.00;99.90;;;;;;5078375;28;20436;-82
2023/11/17 12:38:43;;;;;;;0.50;0.40;;;10.00;99.90;;;;;;5079179;28;20222;-82
2023/11/17 12:41:11;;;;;;;0.50;0.40;;;9.90;99.90;;;;;;5079328;28;20214;-82
2023/11/17 12:43:38;;;;;;;0.50;0.40;;;9.90;99.90;;;;;;5079072;28;20205;-79
2023/11/17 12:46:07;;;;;;;0.75;0.75;;;9.90;99.90;;;;;;5078901;28;20440;-82
2023/11/17 12:48:35;;;;;;;0.50;0.40;;;9.90;99.90;;;;;;5078515;28;20242;-83
2023/11/17 12:51:02;;;;;;;1.35;1.35;;;9.90;99.90;;;;;;5079373;28;20285;-82
2023/11/17 12:53:40;;;;;;;2.55;2.35;;;10.00;99.90;;;;;;5078946;28;20200;-81
2023/11/17 12:56:08;;;;;;;2.17;2.10;;;10.20;99.90;;;;;;5078674;28;20235;-83
2023/11/17 12:58:35;;;;;;;0.50;0.40;;;10.50;99.90;;;;;;5078743;28;21019;-81
2023/11/17 13:01:11;;;;;;;0.50;0.40;;;10.80;99.90;;;;;;5078487;28;20571;-84
2023/11/17 13:03:38;;;;;;;0.50;0.50;;;10.80;99.90;;;;;;5078579;28;20437;-82